Home > Products > Valid Products > TAF

000
FTUS41 KBTV 272300
TAFMPV
TAF
KMPV 272328Z 2800/2824 31006KT P6SM BKN050 OVC110
     FM281400 32009KT P6SM SCT050 BKN070
     FM281700 32012G20KT P6SM BKN040=



000
FTUS41 KBTV 272300
TAFSLK
TAF
KSLK 272328Z 2800/2824 VRB03KT P6SM SCT045 OVC110
     FM280600 VRB03KT P6SM SCT045 BKN080
     FM281400 32009KT P6SM SCT035
     FM281700 32009G16KT P6SM BKN035=



000
FTUS41 KBTV 272300
TAFMSS
TAF
KMSS 272328Z 2800/2824 29004KT P6SM BKN130
     FM280600 28004KT P6SM SCT045 BKN090
     FM281400 31009KT P6SM SCT045 SCT070
     FM281700 31010G18KT P6SM SCT045=



000
FTUS41 KBTV 272300
TAFBTV
TAF
KBTV 272328Z 2800/2824 36008KT P6SM BKN050 OVC060
     FM281400 33009KT P6SM SCT050 BKN070
     FM281700 33012G20KT P6SM BKN045=



000
FTUS41 KBTV 271700
TAFMPV
TAF
KMPV 271735Z 2718/2818 27005KT P6SM BKN040
     FM272300 31005KT P6SM SCT090
     FM281000 VRB03KT P6SM BKN015
     FM281300 31012G19KT P6SM SCT035=



000
FTUS41 KBTV 271700
TAFSLK
TAF
KSLK 271735Z 2718/2818 29010KT P6SM BKN035
     FM272300 30003KT P6SM SCT060
     FM280800 VRB03KT 3SM BR BKN020
     FM281300 31011G17KT P6SM SCT030=



000
FTUS41 KBTV 271700
TAFMSS
TAF
KMSS 271735Z 2718/2818 25009KT P6SM SCT035
     FM280000 28005KT P6SM BKN090
     FM281500 30008KT P6SM SCT040=



000
FTUS41 KBTV 271700
TAFBTV
TAF
KBTV 271735Z 2718/2818 31007KT P6SM SCT040=



000
FTUS41 KBTV 271100
TAFMSS
TAF
KMSS 271124Z 2712/2812 26008KT P6SM SCT040
     FM272100 28003KT P6SM FEW040 SCT150
     FM280600 VRB02KT P6SM BKN040=



000
FTUS41 KBTV 271100
TAFMPV
TAF
KMPV 271124Z 2712/2812 27005KT P6SM VCSH SCT040 BKN060
     FM272100 31004KT P6SM SCT040
     FM280000 VRB02KT P6SM FEW040 SCT100
     FM280600 VRB02KT P6SM BKN030=



000
FTUS41 KBTV 271100
TAFBTV
TAF
KBTV 271124Z 2712/2812 23007KT P6SM VCSH BKN035
     FM271500 27007KT P6SM SCT035
     FM271800 33007KT P6SM SCT040 SCT150
     FM280600 34004KT P6SM BKN035=



000
FTUS41 KBTV 271100
TAFSLK
TAF
KSLK 271124Z 2712/2812 25005KT P6SM SCT020 BKN040
      TEMPO 2712/2716 BKN020
     FM271600 28007KT P6SM SCT035 SCT150
     FM280000 VRB02KT P6SM SCT035 SCT150
     FM280600 VRB02KT P6SM BKN025=



000
FTUS41 KBTV 271000 AAA
TAFSLK
TAF AMD
KSLK 271015Z 2710/2806 24004KT P6SM VCSH SCT020 BKN040
      TEMPO 2710/2714 BKN020
     FM271400 27007KT P6SM BKN035=



000
FTUS41 KBTV 270500
TAFBTV
TAF
KBTV 270520Z 2706/2806 19007KT P6SM BKN060
     FM270800 19008KT P6SM VCSH BKN035
     FM271500 26009KT P6SM BKN035
     FM271800 33006KT P6SM SCT040 SCT150=



000
FTUS41 KBTV 270500
TAFMSS
TAF
KMSS 270520Z 2706/2806 22010KT P6SM VCSH BKN035
     FM270800 24007KT P6SM SCT035
     FM271400 27009KT P6SM BKN035=



000
FTUS41 KBTV 270500
TAFSLK
TAF
KSLK 270520Z 2706/2806 23006KT P6SM VCSH BKN060
     FM270800 24004KT P6SM VCSH BKN025
     FM271000 24004KT P6SM VCSH OVC015
     FM271500 27007KT P6SM BKN035=



000
FTUS41 KBTV 270500
TAFMPV
TAF
KMPV 270520Z 2706/2806 17005KT P6SM SCT050 SCT200
     FM270900 19004KT P6SM VCSH BKN050
     FM271500 30007KT P6SM BKN040=



000
FTUS41 KBTV 262300
TAFSLK
TAF
KSLK 262335Z 2700/2724 23009KT P6SM SCT060
     FM270600 24005KT P6SM BKN050
     FM271400 25008KT P6SM SCT030 BKN200
     FM271800 28008KT P6SM BKN035=



000
FTUS41 KBTV 262300
TAFMPV
TAF
KMPV 262335Z 2700/2724 21004KT P6SM SKC
     FM270700 21003KT P6SM BKN120
     FM271500 25007KT P6SM SCT035
     FM271800 30009KT P6SM BKN035=



000
FTUS41 KBTV 262300
TAFBTV
TAF
KBTV 262335Z 2700/2724 18009KT P6SM FEW150
     FM270700 19007KT P6SM BKN070
     FM271500 26008KT P6SM SCT035
     FM271800 30009KT P6SM BKN040=



000
FTUS41 KBTV 262300
TAFMSS
TAF
KMSS 262335Z 2700/2724 23009KT P6SM BKN070
     FM270800 25007KT P6SM SCT035 BKN100
     FM271400 27009KT P6SM BKN040
     FM271800 27012KT P6SM BKN050=



000
FTUS41 KBTV 261700
TAFMPV
TAF
KMPV 261731Z 2618/2718 22008KT P6SM SKC
     FM270600 21003KT 2SM BR SCT001 BKN090
     FM271300 24005KT P6SM SCT030=



000
FTUS41 KBTV 261700
TAFSLK
TAF
KSLK 261731Z 2618/2718 23009G18KT P6SM SCT070
     FM270400 23005KT P6SM BKN050
     FM271300 26008KT P6SM BKN040=



000
FTUS41 KBTV 261700
TAFBTV
TAF
KBTV 261731Z 2618/2718 20009KT P6SM SKC
     FM270500 18006KT P6SM BKN090
     FM271500 26009KT P6SM SCT035=



000
FTUS41 KBTV 261700
TAFMSS
TAF
KMSS 261731Z 2618/2718 22011G20KT P6SM SCT070
     FM270200 22009KT P6SM VCSH BKN050
     FM270800 25009KT P6SM BKN070=



000
FTUS41 KBTV 261100
TAFMSS
TAF
KMSS 261133Z 2612/2712 22009G18KT P6SM FEW050 FEW250
     FM270000 23007KT P6SM SCT050 SCT250=



000
FTUS41 KBTV 261100
TAFBTV
TAF
KBTV 261133Z 2612/2712 19009KT P6SM FEW050 FEW250
     FM270000 18005KT P6SM SCT050=



000
FTUS41 KBTV 261100
TAFSLK
TAF
KSLK 261133Z 2612/2712 00000KT 4SM BR SCT001
     FM261230 23009KT P6SM FEW040 FEW250
     FM270000 23004KT P6SM SCT040 SCT250=



000
FTUS41 KBTV 261100
TAFMPV
TAF
KMPV 261133Z 2612/2712 00000KT 3SM BR SCT001
     FM261300 21009KT P6SM FEW050 FEW250
     FM270100 VRB02KT P6SM SCT060=



000
FTUS41 KBTV 260700 AAA
TAFSLK
TAF AMD
KSLK 260759Z 2608/2706 00000KT 1SM BR BKN001
      TEMPO 2608/2610 1/4SM FG VV001
     FM261000 VRB02KT 3SM BR SCT001
      TEMPO 2610/2612 00000KT 1SM BR BKN001
     FM261200 22010KT P6SM FEW250
     FM270000 22003KT P6SM FEW080=



000
FTUS41 KBTV 260700 AAA
TAFMPV
TAF AMD
KMPV 260758Z 2608/2706 00000KT 3SM BR SCT001
      TEMPO 2608/2612 1/2SM FG BKN001
     FM261300 22008KT P6SM FEW250
     FM270000 VRB02KT P6SM FEW080=



000
FTUS41 KBTV 260500
TAFSLK
TAF
KSLK 260523Z 2606/2706 00000KT 1SM BR BKN001
      TEMPO 2606/2610 VRB02KT 3SM BR SCT001
     FM261000 VRB02KT 3SM BR SCT001
      TEMPO 2610/2612 00000KT 1SM BR BKN001
     FM261200 22010KT P6SM FEW250
     FM270000 22003KT P6SM FEW080=



000
FTUS41 KBTV 260500
TAFBTV
TAF
KBTV 260523Z 2606/2706 VRB02KT P6SM SKC
     FM261200 19009KT P6SM FEW250=



000
FTUS41 KBTV 260500
TAFMPV
TAF
KMPV 260523Z 2606/2706 00000KT 1SM BR BKN001
      TEMPO 2607/2611 1/4SM FG VV001
     FM261300 22008KT P6SM FEW250
     FM270000 VRB02KT P6SM FEW080=



000
FTUS41 KBTV 260500
TAFMSS
TAF
KMSS 260523Z 2606/2706 22002KT P6SM SKC
      TEMPO 2606/2610 3SM BR FEW001
     FM261200 22010G20KT P6SM FEW250=



000
FTUS41 KBTV 260400 AAA
TAFMPV
TAF AMD
KMPV 260447Z 2605/2624 00000KT 3SM BR SCT001
      TEMPO 2605/2607 2SM BR BKN001
     FM260700 00000KT 1/2SM FG OVC001
     FM261230 VRB03KT P6SM SKC
     FM261500 20007KT P6SM SCT050
     FM261900 20008KT P6SM SCT050 SCT150=



000
FTUS41 KBTV 260300 AAA
TAFSLK
TAF AMD
KSLK 260326Z 2603/2624 00000KT 6SM BR SCT001
      TEMPO 2603/2607 2SM BR BKN001
     FM260700 00000KT 3/4SM BR OVC001
     FM261200 00000KT P6SM SKC
     FM261500 22008KT P6SM SCT045
     FM262100 22009KT P6SM SCT045 BKN150=



000
FTUS41 KBTV 252300
TAFSLK
TAF
KSLK 252323Z 2600/2624 VRB02KT P6SM SKC
     FM260500 00000KT 4SM BR SCT001
     FM260800 00000KT 3/4SM BR OVC001
     FM261200 00000KT P6SM SKC
     FM261500 22008KT P6SM SCT045
     FM262100 22009KT P6SM SCT045 BKN150=



000
FTUS41 KBTV 252300
TAFMPV
TAF
KMPV 252323Z 2600/2624 VRB03KT P6SM SKC
     FM260500 00000KT 3SM BR SCT001
     FM260700 00000KT 1/2SM FG OVC001
     FM261230 VRB03KT P6SM SKC
     FM261500 20007KT P6SM SCT050
     FM261900 20008KT P6SM SCT050 SCT150=



000
FTUS41 KBTV 252300
TAFBTV
TAF
KBTV 252323Z 2600/2624 22004KT P6SM SKC
     FM261500 19010KT P6SM SCT050
     FM261800 19011KT P6SM SCT050 SCT150=



000
FTUS41 KBTV 252300
TAFMSS
TAF
KMSS 252323Z 2600/2624 24003KT P6SM SKC
     FM261500 21010KT P6SM SCT045 SCT150
     FM262000 22012KT P6SM SCT045 BKN150=



000
FTUS41 KBTV 251700
TAFMPV
TAF
KMPV 251725Z 2518/2618 VRB03KT P6SM SCT050
     FM260500 00000KT 3SM BR SCT001
     FM260700 00000KT 1/2SM FG OVC001
     FM261230 VRB03KT P6SM SKC
     FM261600 20007KT P6SM SCT050=



000
FTUS41 KBTV 251700
TAFBTV
TAF
KBTV 251725Z 2518/2618 22004KT P6SM SKC
     FM261500 19011KT P6SM SCT050=



000
FTUS41 KBTV 251700
TAFSLK
TAF
KSLK 251725Z 2518/2618 22004KT P6SM SCT050
     FM260400 00000KT 4SM BR SCT001
     FM260700 00000KT 3/4SM BR OVC001
     FM261200 00000KT P6SM SKC
     FM261500 22006KT P6SM SCT045=



000
FTUS41 KBTV 251700
TAFMSS
TAF
KMSS 251725Z 2518/2618 24006KT P6SM SCT050
     FM261500 21012KT P6SM SCT045=



000
FTUS41 KBTV 251100
TAFMPV
TAF
KMPV 251121Z 2512/2612 00000KT 1/4SM FG VV001
     FM251330 27004KT P6SM SCT050
     FM260000 00000KT P6SM SKC
     FM260500 00000KT 3SM BR SCT001
     FM260600 00000KT 1/4SM FG VV001=



000
FTUS41 KBTV 251100
TAFBTV
TAF
KBTV 251121Z 2512/2612 09003KT P6SM VCFG SKC
     FM251300 24005KT P6SM SKC
     FM260000 16003KT P6SM SKC=



000
FTUS41 KBTV 251100
TAFSLK
TAF
KSLK 251121Z 2512/2612 00000KT 1/2SM FG OVC001
      TEMPO 2512/2513 3SM BR SCT001
     FM251300 25005KT P6SM SCT040
     FM260000 00000KT P6SM SKC
     FM260400 00000KT 3SM BR SCT002
     FM260600 00000KT 1/2SM FG VV002=



000
FTUS41 KBTV 251100
TAFMSS
TAF
KMSS 251121Z 2512/2612 VRB02KT P6SM SKC
      TEMPO 2512/2513 2SM BR SCT002
     FM251500 23007KT P6SM SKC
     FM252300 21003KT P6SM SKC=



000
FTUS41 KBTV 251000 AAA
TAFMSS
TAF AMD
KMSS 251001Z 2510/2606 00000KT P6SM SKC
      TEMPO 2510/2512 2SM BR SCT002
     FM251200 VRB03KT P6SM SKC
     FM251500 23007KT P6SM SKC=



000
FTUS41 KBTV 251000 AAB
TAFSLK
TAF AMD
KSLK 251000Z 2510/2606 00000KT 5SM BR SKC
      TEMPO 2510/2512 1SM BR BKN002
     FM251200 25005KT P6SM SCT040
     FM260000 00000KT P6SM SKC=



000
FTUS41 KBTV 250600 AAA
TAFMPV
TAF AMD
KMPV 250656Z 2507/2606 00000KT 1/4SM FG VV001
     FM251300 27004KT P6SM SCT050
     FM260000 00000KT P6SM SKC=



000
FTUS41 KBTV 250600 AAA
TAFSLK
TAF AMD
KSLK 250656Z 2507/2606 00000KT 5SM BR SKC
      TEMPO 2507/2508 1SM BR BKN002
     FM250800 00000KT 1/2SM FG OVC001
     FM251230 25005KT P6SM SCT040
     FM260000 00000KT P6SM SKC=



000
FTUS41 KBTV 250500
TAFMSS
TAF
KMSS 250521Z 2506/2606 00000KT 2SM BR SKC
      TEMPO 2506/2510 3/4SM BR BKN002
     FM251200 VRB03KT P6SM SKC
     FM251500 23007KT P6SM SKC=



000
FTUS41 KBTV 250500
TAFSLK
TAF
KSLK 250521Z 2506/2606 00000KT 6SM BR SKC
      TEMPO 2506/2507 1SM BR BKN002
     FM250700 00000KT 1/2SM FG OVC001
     FM251230 25005KT P6SM SCT040
     FM260000 00000KT P6SM SKC=



000
FTUS41 KBTV 250500
TAFBTV
TAF
KBTV 250521Z 2506/2606 09003KT P6SM VCFG SKC
     FM251300 24005KT P6SM SKC
     FM260000 VRB03KT P6SM SKC=



000
FTUS41 KBTV 250500
TAFMPV
TAF
KMPV 250521Z 2506/2606 00000KT 4SM BR SCT001
      TEMPO 2507/2508 1SM BR BKN001
     FM250800 00000KT 1/2SM FG OVC001
     FM251300 27004KT P6SM SCT050
     FM260000 00000KT P6SM SKC=



000
FTUS41 KBTV 250400 AAB
TAFSLK
TAF AMD
KSLK 250421Z 2504/2524 00000KT 6SM BR SKC
      TEMPO 2504/2506 1SM BR BKN002
     FM250600 00000KT 1/2SM FG OVC001
     FM251230 25006KT P6SM SCT050=



000
FTUS41 KBTV 250300 AAA
TAFMSS
TAF AMD
KMSS 250335Z 2504/2524 00000KT 6SM BR SKC
      TEMPO 2504/2508 1SM BR BKN002
     FM251200 VRB03KT P6SM SKC
     FM251500 23007KT P6SM SKC=



000
FTUS41 KBTV 250200 AAA
TAFSLK
TAF AMD
KSLK 250238Z 2503/2524 00000KT 1/2SM FG OVC001
     FM251230 25006KT P6SM SCT050=



    US Dept of Commerce
    National Oceanic and Atmospheric Administration
    National Weather Service
    1325 East West Highway
    Silver Spring, MD 20910
    Page Author: NWS Internet Services Team
Disclaimer
Information Quality
Credits
Glossary
Privacy Policy
Freedom of Information Act (FOIA)
About Us
Career Opportunities